createdAt,value
2022-09-27T00:02:28.650Z,99153.38
2022-09-27T00:05:32.961Z,99148.13
2022-09-27T00:08:37.660Z,99138.50
2022-09-27T00:11:42.965Z,99136.53
2022-09-27T00:14:45.882Z,99129.22
2022-09-27T00:17:52.109Z,99113.84
2022-09-27T00:20:56.422Z,99111.06
2022-09-27T00:24:00.699Z,99106.81
2022-09-27T00:27:03.679Z,99107.97
2022-09-27T00:30:07.944Z,99107.31
2022-09-27T00:33:11.484Z,99107.00
2022-09-27T00:36:16.133Z,99101.09
2022-09-27T00:39:20.088Z,99101.09
2022-09-27T00:42:23.012Z,99104.56
2022-09-27T00:45:26.186Z,99094.25
2022-09-27T00:48:32.887Z,99091.16
2022-09-27T00:51:40.589Z,99083.78
2022-09-27T00:54:48.234Z,99080.84
2022-09-27T00:57:52.544Z,99088.38
2022-09-27T01:01:00.509Z,99074.00
2022-09-27T01:04:09.119Z,99071.72
2022-09-27T01:07:13.386Z,99062.91
2022-09-27T01:10:18.468Z,99059.78
2022-09-27T01:13:26.478Z,99061.59
2022-09-27T01:16:37.337Z,99055.38
2022-09-27T01:20:06.532Z,99052.78
2022-09-27T01:23:39.640Z,99053.91
2022-09-27T01:27:19.367Z,99044.28
2022-09-27T01:30:28.354Z,99039.88
2022-09-27T01:33:44.539Z,99035.47
2022-09-27T01:36:55.050Z,99040.69
2022-09-27T01:40:03.750Z,99032.88
2022-09-27T01:43:14.627Z,99026.66
2022-09-27T01:46:24.997Z,99027.16
2022-09-27T01:49:54.862Z,99029.09
2022-09-27T01:53:03.609Z,99024.09
2022-09-27T01:56:20.302Z,99017.06
2022-09-27T01:59:34.691Z,99017.22
2022-09-27T02:03:22.044Z,99005.31
2022-09-27T02:06:46.755Z,98998.63
2022-09-27T02:09:58.278Z,98995.34
2022-09-27T02:13:18.747Z,98997.31
2022-09-27T02:16:31.863Z,98983.09
2022-09-27T02:19:44.838Z,98976.09
2022-09-27T02:22:54.965Z,98977.75
2022-09-27T02:26:01.100Z,98973.81
2022-09-27T02:29:10.553Z,98971.06
2022-09-27T02:32:21.535Z,98966.47
2022-09-27T02:35:30.007Z,98955.84
2022-09-27T02:38:33.191Z,98958.16
2022-09-27T02:41:37.792Z,98953.91
2022-09-27T02:44:41.810Z,98944.75
2022-09-27T02:48:12.283Z,98949.50
2022-09-27T02:51:35.677Z,98944.28
2022-09-27T02:54:48.569Z,98938.25
2022-09-27T02:58:23.959Z,98936.28
2022-09-27T03:01:53.218Z,98924.66
2022-09-27T03:05:08.725Z,98929.25
2022-09-27T03:08:14.924Z,98921.75
2022-09-27T03:11:18.070Z,98935.63
2022-09-27T03:14:21.573Z,98923.53
2022-09-27T03:17:36.200Z,98914.72
2022-09-27T03:20:58.498Z,98920.91
2022-09-27T03:24:03.963Z,98916.00
2022-09-27T03:27:07.465Z,98915.38
2022-09-27T03:30:14.079Z,98917.31
2022-09-27T03:33:17.176Z,98913.91
2022-09-27T03:36:26.432Z,98902.94
2022-09-27T03:39:30.776Z,98904.59
2022-09-27T03:42:33.782Z,98901.31
2022-09-27T03:45:37.298Z,98897.41
2022-09-27T03:48:46.075Z,98891.69
2022-09-27T03:51:49.074Z,98890.06
2022-09-27T03:54:56.308Z,98887.47
2022-09-27T03:58:01.842Z,98884.69
2022-09-27T04:01:05.456Z,98868.69
2022-09-27T04:04:11.389Z,98866.63
2022-09-27T04:07:14.742Z,98855.50
2022-09-27T04:10:19.265Z,98853.69
2022-09-27T04:13:22.854Z,98846.84
2022-09-27T04:16:30.168Z,98845.09
2022-09-27T04:19:51.992Z,98837.41
2022-09-27T04:22:55.898Z,98837.41
2022-09-27T04:26:00.457Z,98826.94
2022-09-27T04:29:22.687Z,98826.16
2022-09-27T04:32:28.616Z,98826.81
2022-09-27T04:36:08.069Z,98814.44
2022-09-27T04:39:15.225Z,98811.97
2022-09-27T04:42:21.608Z,98808.72
2022-09-27T04:45:25.114Z,98811.00
2022-09-27T04:48:28.149Z,98810.00
2022-09-27T04:51:31.248Z,98802.03
2022-09-27T04:54:34.346Z,98801.41
2022-09-27T04:57:48.841Z,98803.03
2022-09-27T05:00:54.566Z,98796.66
2022-09-27T05:04:16.889Z,98786.22
2022-09-27T05:07:24.810Z,98780.84
2022-09-27T05:10:32.685Z,98783.28
2022-09-27T05:13:37.340Z,98774.81
2022-09-27T05:16:40.547Z,98782.00
2022-09-27T05:20:04.024Z,98771.22
2022-09-27T05:23:16.566Z,98761.13
2022-09-27T05:26:20.023Z,98758.50
2022-09-27T05:29:24.463Z,98762.41
2022-09-27T05:32:45.436Z,98756.88
2022-09-27T05:36:08.020Z,98744.84
2022-09-27T05:39:11.450Z,98752.31
2022-09-27T05:42:15.400Z,98741.25
2022-09-27T05:45:20.447Z,98739.25
2022-09-27T05:48:23.654Z,98726.88
2022-09-27T05:51:36.411Z,98713.66
2022-09-27T05:54:39.490Z,98701.28
2022-09-27T05:57:42.500Z,98696.09
2022-09-27T06:00:47.603Z,98694.47
2022-09-27T06:04:18.265Z,98678.97
2022-09-27T06:08:01.623Z,98681.25
2022-09-27T06:11:13.024Z,98676.84
2022-09-27T06:14:16.303Z,98676.34
2022-09-27T06:17:35.301Z,98663.81
2022-09-27T06:20:44.029Z,98661.56
2022-09-27T06:23:54.270Z,98660.72
2022-09-27T06:27:04.311Z,98663.84
2022-09-27T06:30:28.211Z,98656.97
2022-09-27T06:33:34.608Z,98647.03
2022-09-27T06:36:39.252Z,98647.06
2022-09-27T06:39:42.484Z,98635.66
2022-09-27T06:43:10.727Z,98638.56
2022-09-27T06:46:31.296Z,98634.50
2022-09-27T06:49:55.813Z,98630.75
2022-09-27T06:52:59.751Z,98634.03
2022-09-27T06:56:04.043Z,98622.63
2022-09-27T06:59:35.958Z,98623.91
2022-09-27T07:03:01.187Z,98623.28
2022-09-27T07:06:22.767Z,98623.09
2022-09-27T07:09:40.219Z,98626.69
2022-09-27T07:12:44.512Z,98617.09
2022-09-27T07:15:47.511Z,98623.91
2022-09-27T07:18:51.735Z,98609.91
2022-09-27T07:21:56.025Z,98615.75
2022-09-27T07:25:00.251Z,98614.09
2022-09-27T07:28:06.148Z,98622.91
2022-09-27T07:31:10.406Z,98617.19
2022-09-27T07:34:13.599Z,98619.34
2022-09-27T07:37:18.112Z,98619.00
2022-09-27T07:40:21.866Z,98619.47
2022-09-27T07:43:25.313Z,98616.56
2022-09-27T07:46:28.325Z,98607.56
2022-09-27T07:49:34.066Z,98604.34
2022-09-27T07:52:53.609Z,98604.34
2022-09-27T07:56:29.035Z,98605.31
2022-09-27T07:59:32.459Z,98606.13
2022-09-27T08:02:36.276Z,98604.34
2022-09-27T08:05:41.729Z,98605.63
2022-09-27T08:08:47.381Z,98605.91
2022-09-27T08:11:50.514Z,98611.03
2022-09-27T08:14:54.636Z,98614.72
2022-09-27T08:17:58.713Z,98613.09
2022-09-27T08:21:21.696Z,98615.72
2022-09-27T08:24:48.071Z,98610.84
2022-09-27T08:28:01.108Z,98615.53
2022-09-27T08:31:11.750Z,98614.91
2022-09-27T08:34:15.026Z,98620.63
2022-09-27T08:37:18.907Z,98610.34
2022-09-27T08:40:27.528Z,98616.03
2022-09-27T08:43:39.797Z,98621.59
2022-09-27T08:46:54.972Z,98620.91
2022-09-27T08:50:03.922Z,98620.75
2022-09-27T08:53:19.370Z,98617.31
2022-09-27T08:56:24.623Z,98625.78
2022-09-27T08:59:31.624Z,98633.47
2022-09-27T09:02:37.191Z,98635.06
2022-09-27T09:05:40.600Z,98626.41
2022-09-27T09:09:00.945Z,98625.59
2022-09-27T09:12:38.090Z,98632.59
2022-09-27T09:15:56.449Z,98623.47
2022-09-27T09:19:23.331Z,98621.00
2022-09-27T09:23:19.632Z,98616.75
2022-09-27T09:26:33.005Z,98618.81
2022-09-27T09:30:05.984Z,98621.41
2022-09-27T09:33:23.052Z,98619.41
2022-09-27T09:36:32.643Z,98619.91
2022-09-27T09:39:41.625Z,98624.44
2022-09-27T09:42:51.018Z,98629.97
2022-09-27T09:46:04.706Z,98633.50
2022-09-27T09:49:19.446Z,98626.47
2022-09-27T09:52:28.238Z,98640.88
2022-09-27T09:55:34.726Z,98629.56
2022-09-27T09:58:45.981Z,98633.50
2022-09-27T10:01:57.394Z,98634.91
2022-09-27T10:05:06.777Z,98635.50
2022-09-27T10:08:22.090Z,98643.47
2022-09-27T10:11:38.487Z,98645.84
2022-09-27T10:14:50.137Z,98647.47
2022-09-27T10:17:58.075Z,98654.97
2022-09-27T10:21:06.663Z,98666.41
2022-09-27T10:24:17.840Z,98673.28
2022-09-27T10:27:43.475Z,98676.19
2022-09-27T10:30:57.036Z,98679.09
2022-09-27T10:34:05.206Z,98679.66
2022-09-27T10:37:19.260Z,98675.63
2022-09-27T10:40:53.226Z,98685.19
2022-09-27T10:43:56.329Z,98692.41
2022-09-27T10:47:10.298Z,98678.75
2022-09-27T10:54:01.052Z,98682.16
2022-09-27T10:57:21.386Z,98684.19
2022-09-27T11:00:27.708Z,98693.25
2022-09-27T11:03:32.884Z,98739.94
2022-09-27T11:06:39.230Z,98758.16
2022-09-27T11:09:52.766Z,98773.34
2022-09-27T11:13:17.667Z,98781.47
2022-09-27T11:16:46.089Z,98784.47
2022-09-27T11:20:07.496Z,98787.03
2022-09-27T11:23:49.173Z,98784.63
2022-09-27T11:27:10.802Z,98778.75
2022-09-27T11:30:17.445Z,98779.53
2022-09-27T11:34:02.549Z,98773.03
2022-09-27T11:37:19.483Z,98778.88
2022-09-27T11:41:08.940Z,98768.31
2022-09-27T11:44:48.244Z,98763.09
2022-09-27T11:48:05.227Z,98764.22
2022-09-27T11:51:29.518Z,98773.44
2022-09-27T11:54:51.585Z,98776.13
2022-09-27T11:58:05.807Z,98785.44
2022-09-27T12:01:28.727Z,98772.84
2022-09-27T12:05:04.151Z,98730.97
2022-09-27T12:08:27.467Z,98721.50
2022-09-27T12:11:38.762Z,98690.22
2022-09-27T12:14:47.140Z,98678.31
2022-09-27T12:17:55.701Z,98674.56
2022-09-27T12:21:03.349Z,98666.09
2022-09-27T12:24:08.185Z,98661.56
2022-09-27T12:27:20.524Z,98664.00
2022-09-27T12:30:24.856Z,98662.84
2022-09-27T12:33:35.453Z,98655.84
2022-09-27T12:36:45.436Z,98646.75
2022-09-27T12:39:54.203Z,98642.81
2022-09-27T12:43:09.064Z,98624.03
2022-09-27T12:46:45.406Z,98615.16
2022-09-27T12:50:01.652Z,98615.63
2022-09-27T12:53:11.551Z,98611.28
2022-09-27T12:56:30.301Z,98610.91
2022-09-27T12:59:56.882Z,98620.38
2022-09-27T13:03:26.138Z,98641.66
2022-09-27T13:06:55.593Z,98649.25
2022-09-27T13:10:24.834Z,98654.91
2022-09-27T13:13:34.235Z,98651.91
2022-09-27T13:16:44.677Z,98666.38
2022-09-27T13:19:51.058Z,98673.78
2022-09-27T13:22:54.719Z,98679.09
2022-09-27T13:26:25.801Z,98682.28
2022-09-27T13:29:34.693Z,98706.00
2022-09-27T13:33:38.412Z,98718.91
2022-09-27T13:36:43.380Z,98724.47
2022-09-27T13:39:48.097Z,98731.25
2022-09-27T13:43:36.836Z,98733.09
2022-09-27T13:46:55.914Z,98747.34
2022-09-27T13:50:16.682Z,98753.31
2022-09-27T13:53:33.913Z,98753.75
2022-09-27T13:56:56.151Z,98758.19
2022-09-27T14:00:05.103Z,98753.97
2022-09-27T14:03:32.314Z,98758.03
2022-09-27T14:06:44.968Z,98764.22
2022-09-27T14:09:54.059Z,98755.59
2022-09-27T14:13:04.352Z,98756.41
2022-09-27T14:16:10.915Z,98767.03
2022-09-27T14:19:19.514Z,98775.03
2022-09-27T14:22:25.245Z,98782.84
2022-09-27T14:25:34.635Z,98785.50
2022-09-27T14:28:42.610Z,98782.22
2022-09-27T14:32:05.799Z,98791.69
2022-09-27T14:35:41.825Z,98791.81
2022-09-27T14:38:44.956Z,98801.75
2022-09-27T14:41:57.692Z,98821.13
2022-09-27T14:45:06.373Z,98857.31
2022-09-27T14:48:23.693Z,98872.50
2022-09-27T14:51:30.726Z,98886.41
2022-09-27T14:54:33.819Z,98909.72
2022-09-27T14:57:40.000Z,98918.56
2022-09-27T15:00:49.348Z,98917.59
2022-09-27T15:03:53.668Z,98917.75
2022-09-27T15:06:57.547Z,98922.78
2022-09-27T15:10:00.584Z,98921.53
2022-09-27T15:13:07.263Z,98927.88
2022-09-27T15:16:17.197Z,98913.69
2022-09-27T15:19:26.917Z,98917.09
2022-09-27T15:22:48.270Z,98918.28
2022-09-27T15:26:11.297Z,98923.16
2022-09-27T15:29:23.020Z,98927.78
2022-09-27T15:32:28.498Z,98924.50
2022-09-27T15:35:34.237Z,98909.47
2022-09-27T15:38:40.552Z,98902.28
2022-09-27T15:42:05.967Z,98903.31
2022-09-27T15:45:30.025Z,98906.91
2022-09-27T15:48:35.679Z,98912.75
2022-09-27T15:51:42.855Z,98903.97
2022-09-27T15:54:45.822Z,98920.28
2022-09-27T15:57:52.387Z,98918.66
2022-09-27T16:00:59.485Z,98922.91
2022-09-27T16:04:02.834Z,98915.69
2022-09-27T16:07:08.974Z,98915.41
2022-09-27T16:10:15.082Z,98914.56
2022-09-27T16:13:18.081Z,98914.25
2022-09-27T16:16:23.416Z,98908.84
2022-09-27T16:19:26.740Z,98932.91
2022-09-27T16:22:30.538Z,98948.34
2022-09-27T16:25:33.721Z,98959.09
2022-09-27T16:28:37.989Z,98977.00
2022-09-27T16:31:42.866Z,98974.53
2022-09-27T16:34:45.944Z,98978.31
2022-09-27T16:37:49.131Z,98977.16
2022-09-27T16:40:52.712Z,98979.06
2022-09-27T16:43:55.698Z,98973.22
2022-09-27T16:47:00.127Z,98973.22
2022-09-27T16:50:20.883Z,98966.88
2022-09-27T16:53:24.279Z,98966.66
2022-09-27T16:56:28.475Z,98958.72
2022-09-27T16:59:32.799Z,98957.06
2022-09-27T17:02:37.084Z,98951.66
2022-09-27T17:05:40.038Z,98959.19
2022-09-27T17:08:43.354Z,98958.66
2022-09-27T17:11:46.426Z,98956.16
2022-09-27T17:14:49.399Z,98973.25
2022-09-27T17:17:53.715Z,98972.88
2022-09-27T17:21:02.465Z,98981.88
2022-09-27T17:24:06.404Z,98983.38
2022-09-27T17:27:09.353Z,98977.16
2022-09-27T17:30:13.852Z,98973.56
2022-09-27T17:33:20.356Z,98968.66
2022-09-27T17:36:25.761Z,98972.69
2022-09-27T17:39:29.314Z,98970.41
2022-09-27T17:42:33.012Z,98970.06
2022-09-27T17:45:36.006Z,98965.47
2022-09-27T17:48:58.415Z,98956.00
2022-09-27T17:52:01.669Z,98948.44
2022-09-27T17:55:05.711Z,98955.28
2022-09-27T17:58:09.816Z,98955.53
2022-09-27T18:01:16.447Z,98949.00
2022-09-27T18:04:20.953Z,98954.94
2022-09-27T18:07:23.930Z,98944.53
2022-09-27T18:10:27.452Z,98934.44
2022-09-27T18:13:39.076Z,98941.72
2022-09-27T18:16:44.410Z,98938.16
2022-09-27T18:19:49.614Z,98929.03
2022-09-27T18:22:53.618Z,98942.41
2022-09-27T18:25:58.084Z,98938.84
2022-09-27T18:29:07.842Z,98937.69
2022-09-27T18:32:16.549Z,98936.44
2022-09-27T18:35:24.834Z,98936.59
2022-09-27T18:38:27.976Z,98938.22
2022-09-27T18:41:34.502Z,98936.28
2022-09-27T18:44:38.918Z,98935.47
2022-09-27T18:47:42.517Z,98942.09
2022-09-27T18:50:47.962Z,98946.28
2022-09-27T18:53:57.198Z,98938.91
2022-09-27T18:57:00.925Z,98943.91
2022-09-27T19:00:05.980Z,98945.31
2022-09-27T19:03:21.164Z,98945.00
2022-09-27T19:06:40.029Z,98951.03
2022-09-27T19:09:47.801Z,98949.63
2022-09-27T19:12:51.214Z,98958.25
2022-09-27T19:16:03.754Z,98952.84
2022-09-27T19:19:07.465Z,98963.53
2022-09-27T19:22:12.273Z,98960.53
2022-09-27T19:25:17.287Z,98946.25
2022-09-27T19:28:21.332Z,98945.44
2022-09-27T19:31:27.065Z,98950.69
2022-09-27T19:34:30.184Z,98948.78
2022-09-27T19:37:34.747Z,98955.34
2022-09-27T19:40:41.680Z,98956.97
2022-09-27T19:43:47.352Z,98963.16
2022-09-27T19:46:50.593Z,98969.06
2022-09-27T19:49:54.099Z,98979.63
2022-09-27T19:52:59.215Z,98979.03
2022-09-27T19:56:05.662Z,98989.19
2022-09-27T19:59:14.116Z,98983.31
2022-09-27T20:02:18.061Z,98985.63
2022-09-27T20:05:22.694Z,98980.69
2022-09-27T20:08:31.740Z,98983.31
2022-09-27T20:11:39.349Z,98989.09
2022-09-27T20:14:43.936Z,98988.41
2022-09-27T20:17:47.483Z,98992.25
2022-09-27T20:21:07.778Z,99002.84
2022-09-27T20:24:23.811Z,98997.53
2022-09-27T20:27:27.464Z,98994.50
2022-09-27T20:30:31.335Z,98990.13
2022-09-27T20:33:44.072Z,98993.53
2022-09-27T20:36:47.019Z,98998.22
2022-09-27T20:39:52.562Z,99015.06
2022-09-27T20:42:55.492Z,99006.03
2022-09-27T20:46:02.459Z,99000.06
2022-09-27T20:49:07.920Z,99004.19
2022-09-27T20:52:10.849Z,99011.28
2022-09-27T20:55:15.520Z,98998.03
2022-09-27T20:58:18.452Z,98992.09
2022-09-27T21:01:22.790Z,98991.97
2022-09-27T21:04:25.831Z,98992.34
2022-09-27T21:07:28.766Z,98999.88
2022-09-27T21:10:33.652Z,98998.66
2022-09-27T21:13:38.677Z,98999.31
2022-09-27T21:16:41.827Z,99012.63
2022-09-27T21:19:44.817Z,99012.06
2022-09-27T21:22:47.776Z,99021.31
2022-09-27T21:26:05.531Z,99024.03
2022-09-27T21:29:11.607Z,99031.59
2022-09-27T21:32:14.606Z,99033.06
2022-09-27T21:35:18.106Z,99030.91
2022-09-27T21:38:21.163Z,99029.81
2022-09-27T21:41:26.289Z,99032.25
2022-09-27T21:44:29.216Z,99034.69
2022-09-27T21:47:34.454Z,99040.88
2022-09-27T21:50:37.352Z,99034.19
2022-09-27T21:53:44.245Z,99038.84
2022-09-27T21:56:48.492Z,99042.84
2022-09-27T21:59:51.608Z,99032.06
2022-09-27T22:02:58.012Z,99037.56
2022-09-27T22:06:01.005Z,99025.78
2022-09-27T22:09:07.050Z,99040.56
2022-09-27T22:12:11.635Z,99050.13
2022-09-27T22:15:14.825Z,99062.16
2022-09-27T22:18:18.155Z,99072.00
2022-09-27T22:21:23.945Z,99062.16
2022-09-27T22:24:27.011Z,99070.22
2022-09-27T22:27:31.825Z,99066.56
2022-09-27T22:30:35.203Z,99066.16
2022-09-27T22:33:38.569Z,99064.41
2022-09-27T22:36:42.237Z,99051.03
2022-09-27T22:39:45.168Z,99040.63
2022-09-27T22:42:49.394Z,99033.53
2022-09-27T22:45:52.473Z,99031.88
2022-09-27T22:48:55.967Z,99025.22
2022-09-27T22:51:58.923Z,99022.31
2022-09-27T22:55:01.855Z,99020.28
2022-09-27T22:58:06.187Z,99026.69
2022-09-27T23:01:10.336Z,99020.16
2022-09-27T23:04:14.038Z,99016.88
2022-09-27T23:07:17.191Z,99009.78
2022-09-27T23:10:22.246Z,99015.25
2022-09-27T23:13:31.194Z,99014.44
2022-09-27T23:16:35.922Z,99007.31
2022-09-27T23:19:38.993Z,99001.19
2022-09-27T23:22:41.959Z,98994.47
2022-09-27T23:25:44.875Z,98996.38
2022-09-27T23:28:53.385Z,98995.28
2022-09-27T23:31:56.306Z,99004.03
2022-09-27T23:34:59.253Z,99000.19
2022-09-27T23:38:02.202Z,98998.28
2022-09-27T23:41:05.328Z,98998.97
2022-09-27T23:44:09.568Z,98999.66
2022-09-27T23:47:12.523Z,99006.34
2022-09-27T23:50:15.581Z,99004.72
2022-09-27T23:53:18.704Z,99010.31
2022-09-27T23:56:21.613Z,99007.31
2022-09-27T23:59:27.774Z,99010.97
